createdAt,value
2024-03-30T05:43:29.492Z,96815.86
2024-03-30T05:45:58.076Z,96814.22
2024-03-30T05:48:26.070Z,96810.77
2024-03-30T05:50:54.360Z,96815.91
2024-03-30T05:53:22.123Z,96817.54
2024-03-30T05:55:51.516Z,96822.94
2024-03-30T05:58:19.186Z,96825.38
2024-03-30T06:00:46.787Z,96820.36
2024-03-30T06:03:14.401Z,96821.39
2024-03-30T06:05:42.094Z,96820.73
2024-03-30T06:08:09.835Z,96822.03
2024-03-30T06:10:37.484Z,96819.59
2024-03-30T06:13:05.051Z,96818.87
2024-03-30T06:15:32.674Z,96818.22
2024-03-30T06:18:00.291Z,96818.75
2024-03-30T06:20:28.180Z,96817.79
2024-03-30T06:22:55.782Z,96820.86
2024-03-30T06:25:23.390Z,96819.91
2024-03-30T06:27:51.766Z,96821.70
2024-03-30T06:30:19.411Z,96820.52
2024-03-30T06:32:46.993Z,96819.36
2024-03-30T06:35:14.756Z,96821.55
2024-03-30T06:37:42.321Z,96819.27
2024-03-30T06:40:10.639Z,96821.92
2024-03-30T06:42:38.254Z,96828.11
2024-03-30T06:45:06.321Z,96827.04
2024-03-30T06:47:34.054Z,96831.63
2024-03-30T06:50:01.728Z,96835.09
2024-03-30T06:52:29.511Z,96835.36
2024-03-30T06:54:59.132Z,96832.05
2024-03-30T06:57:27.448Z,96833.23
2024-03-30T06:59:55.112Z,96838.98
2024-03-30T07:02:22.730Z,96841.40
2024-03-30T07:04:50.458Z,96846.06
2024-03-30T07:07:18.055Z,96849.96
2024-03-30T07:09:46.027Z,96849.21
2024-03-30T07:12:13.566Z,96847.94
2024-03-30T07:14:41.203Z,96847.85
2024-03-30T07:17:14.394Z,96853.30
2024-03-30T07:19:42.799Z,96855.88
2024-03-30T07:22:10.519Z,96854.29
2024-03-30T07:24:38.798Z,96851.48
2024-03-30T07:27:06.633Z,96855.14
2024-03-30T07:29:34.322Z,96852.77
2024-03-30T07:32:01.894Z,96849.09
2024-03-30T07:34:29.462Z,96846.40
2024-03-30T07:36:57.147Z,96848.56
2024-03-30T07:39:24.753Z,96849.03
2024-03-30T07:41:52.435Z,96854.57
2024-03-30T07:44:20.208Z,96856.38
2024-03-30T07:46:47.896Z,96859.30
2024-03-30T07:49:15.498Z,96859.13
2024-03-30T07:51:43.159Z,96846.26
2024-03-30T07:54:10.716Z,96843.96
2024-03-30T07:56:39.735Z,96843.77
2024-03-30T07:59:07.430Z,96843.73
2024-03-30T08:01:35.098Z,96847.66
2024-03-30T08:04:02.902Z,96851.74
2024-03-30T08:06:30.689Z,96852.71
2024-03-30T08:08:58.389Z,96853.27
2024-03-30T08:11:28.098Z,96859.48
2024-03-30T08:13:57.060Z,96861.59
2024-03-30T08:16:24.699Z,96860.16
2024-03-30T08:18:52.542Z,96858.48
2024-03-30T08:21:20.242Z,96858.42
2024-03-30T08:23:47.938Z,96853.20
2024-03-30T08:26:15.656Z,96853.17
2024-03-30T08:28:47.306Z,96852.48
2024-03-30T08:31:16.145Z,96852.60
2024-03-30T08:33:45.071Z,96856.58
2024-03-30T08:36:12.649Z,96859.87
2024-03-30T08:38:40.439Z,96859.77
2024-03-30T08:41:08.013Z,96857.35
2024-03-30T08:43:35.704Z,96858.78
2024-03-30T08:46:03.372Z,96860.29
2024-03-30T08:48:33.768Z,96858.94
2024-03-30T08:51:04.137Z,96858.02
2024-03-30T08:53:31.706Z,96862.59
2024-03-30T08:56:01.813Z,96862.07
2024-03-30T08:58:29.515Z,96861.87
2024-03-30T09:00:57.667Z,96856.23
2024-03-30T09:03:25.372Z,96858.27
2024-03-30T09:05:53.266Z,96855.02
2024-03-30T09:08:21.660Z,96856.48
2024-03-30T09:10:49.268Z,96850.30
2024-03-30T09:13:16.930Z,96846.80
2024-03-30T09:15:44.662Z,96841.35
2024-03-30T09:18:12.498Z,96838.66
2024-03-30T09:20:40.187Z,96834.97
2024-03-30T09:23:07.850Z,96843.41
2024-03-30T09:25:35.703Z,96849.16
2024-03-30T09:28:03.658Z,96848.35
2024-03-30T09:30:31.520Z,96849.71
2024-03-30T09:32:59.128Z,96845.64
2024-03-30T09:35:27.021Z,96845.34
2024-03-30T09:37:54.927Z,96836.05
2024-03-30T09:40:22.857Z,96834.31
2024-03-30T09:42:50.465Z,96832.91
2024-03-30T09:45:18.980Z,96828.11
2024-03-30T09:47:49.239Z,96828.48
2024-03-30T09:50:18.273Z,96825.71
2024-03-30T09:52:48.673Z,96827.20
2024-03-30T09:55:16.502Z,96828.94
2024-03-30T09:57:51.633Z,96829.73
2024-03-30T10:00:20.057Z,96828.19
2024-03-30T10:02:48.075Z,96830.41
2024-03-30T10:05:29.402Z,96828.29
2024-03-30T10:08:07.580Z,96824.09
2024-03-30T10:10:35.460Z,96820.61
2024-03-30T10:13:11.745Z,96819.89
2024-03-30T10:15:50.988Z,96817.56
2024-03-30T10:18:19.379Z,96821.61
2024-03-30T10:20:47.070Z,96821.41
2024-03-30T10:23:15.640Z,96819.98
2024-03-30T10:25:53.821Z,96820.48
2024-03-30T10:28:22.936Z,96813.17
2024-03-30T10:30:50.762Z,96812.17
2024-03-30T10:33:19.571Z,96815.81
2024-03-30T10:35:47.453Z,96810.10
2024-03-30T10:38:15.815Z,96809.59
2024-03-30T10:40:43.500Z,96804.52
2024-03-30T10:43:11.229Z,96797.11
2024-03-30T10:45:40.038Z,96798.39
2024-03-30T10:48:08.998Z,96798.20
2024-03-30T10:50:37.131Z,96799.31
2024-03-30T10:53:06.911Z,96802.15
2024-03-30T10:55:38.670Z,96799.08
2024-03-30T10:58:06.485Z,96796.26
2024-03-30T11:00:34.886Z,96794.63
2024-03-30T11:03:04.196Z,96792.55
2024-03-30T11:05:33.206Z,96785.21
2024-03-30T11:08:03.217Z,96779.37
2024-03-30T11:10:31.271Z,96778.69
2024-03-30T11:12:59.251Z,96781.56
2024-03-30T11:15:30.096Z,96779.33
2024-03-30T11:18:03.827Z,96775.67
2024-03-30T11:21:14.670Z,96775.66
2024-03-30T11:23:50.234Z,96775.69
2024-03-30T11:26:21.974Z,96777.68
2024-03-30T11:29:10.433Z,96771.76
2024-03-30T11:31:43.435Z,96768.58
2024-03-30T11:34:16.650Z,96762.41
2024-03-30T11:36:52.759Z,96757.38
2024-03-30T11:39:32.978Z,96764.94
2024-03-30T11:42:26.593Z,96760.39
2024-03-30T11:44:55.686Z,96765.40
2024-03-30T11:47:24.426Z,96763.27
2024-03-30T11:49:52.608Z,96763.38
2024-03-30T11:52:20.283Z,96756.46
2024-03-30T11:54:48.073Z,96756.83
2024-03-30T11:57:23.350Z,96762.25
2024-03-30T11:59:53.010Z,96756.48
2024-03-30T12:02:22.999Z,96758.38
2024-03-30T12:04:50.574Z,96752.76
2024-03-30T12:07:18.649Z,96766.81
2024-03-30T12:09:49.710Z,96765.16
2024-03-30T12:12:18.815Z,96759.44
2024-03-30T12:14:48.212Z,96757.31
2024-03-30T12:17:16.060Z,96751.26
2024-03-30T12:19:44.639Z,96744.29
2024-03-30T12:22:12.512Z,96746.22
2024-03-30T12:24:42.090Z,96745.71
2024-03-30T12:27:09.893Z,96749.00
2024-03-30T12:29:40.757Z,96751.16
2024-03-30T12:32:08.754Z,96745.39
2024-03-30T12:34:36.482Z,96746.63
2024-03-30T12:37:06.550Z,96746.81
2024-03-30T12:39:34.300Z,96748.98
2024-03-30T12:42:01.946Z,96746.73
2024-03-30T12:44:29.545Z,96748.21
2024-03-30T12:46:57.287Z,96747.27
2024-03-30T12:49:24.954Z,96745.47
2024-03-30T12:51:53.310Z,96746.40
2024-03-30T12:54:20.913Z,96744.21
2024-03-30T12:56:48.841Z,96745.55
2024-03-30T12:59:16.500Z,96747.46
2024-03-30T13:01:44.072Z,96745.98
2024-03-30T13:04:12.411Z,96738.69
2024-03-30T13:06:43.286Z,96735.95
2024-03-30T13:09:23.406Z,96741.19
2024-03-30T13:11:51.371Z,96731.61
2024-03-30T13:14:19.039Z,96731.05
2024-03-30T13:16:46.744Z,96726.99
2024-03-30T13:19:15.854Z,96728.05
2024-03-30T13:21:43.623Z,96724.44
2024-03-30T13:24:11.297Z,96729.79
2024-03-30T13:26:39.160Z,96726.67
2024-03-30T13:29:08.040Z,96727.93
2024-03-30T13:31:35.738Z,96734.52
2024-03-30T13:34:03.518Z,96730.59
2024-03-30T13:36:31.225Z,96727.02
2024-03-30T13:38:58.767Z,96727.84
2024-03-30T13:41:26.759Z,96726.23
2024-03-30T13:43:54.310Z,96720.07
2024-03-30T13:46:22.124Z,96724.62
2024-03-30T13:48:49.797Z,96719.70
2024-03-30T13:51:17.430Z,96714.50
2024-03-30T13:53:45.039Z,96718.59
2024-03-30T13:56:12.660Z,96726.80
2024-03-30T13:58:40.351Z,96727.58
2024-03-30T14:01:07.998Z,96730.71
2024-03-30T14:03:35.568Z,96729.11
2024-03-30T14:06:03.488Z,96732.54
2024-03-30T14:08:31.638Z,96726.63
2024-03-30T14:10:59.319Z,96730.02
2024-03-30T14:13:29.805Z,96732.04
2024-03-30T14:15:57.580Z,96727.38
2024-03-30T14:18:25.363Z,96725.42
2024-03-30T14:20:53.030Z,96723.64
2024-03-30T14:23:20.837Z,96725.44
2024-03-30T14:25:48.523Z,96726.30
2024-03-30T14:28:16.092Z,96727.53
2024-03-30T14:30:45.909Z,96719.48
2024-03-30T14:33:15.209Z,96717.10
2024-03-30T14:35:43.060Z,96720.71
2024-03-30T14:38:11.006Z,96718.52
2024-03-30T14:40:38.782Z,96710.30
2024-03-30T14:43:06.352Z,96708.20
2024-03-30T14:45:34.357Z,96705.03
2024-03-30T14:48:02.219Z,96703.11
2024-03-30T14:50:29.890Z,96698.11
2024-03-30T14:52:57.906Z,96695.34
2024-03-30T14:55:25.598Z,96696.91
2024-03-30T14:57:53.209Z,96690.46
2024-03-30T15:00:20.996Z,96687.27
2024-03-30T15:02:48.892Z,96688.21
2024-03-30T15:05:16.667Z,96688.73
2024-03-30T15:07:44.326Z,96684.56
2024-03-30T15:10:15.421Z,96684.33
2024-03-30T15:12:44.246Z,96675.20
2024-03-30T15:15:13.277Z,96682.67
2024-03-30T15:17:40.963Z,96675.20
2024-03-30T15:20:08.945Z,96675.31
2024-03-30T15:22:36.624Z,96675.70
2024-03-30T16:35:34.877Z,96653.40
2024-03-30T16:38:02.605Z,96656.38
2024-03-30T16:40:30.306Z,96654.58
2024-03-30T16:42:57.985Z,96654.65
2024-03-30T16:45:25.739Z,96662.83
2024-03-30T16:47:53.520Z,96667.89
2024-03-30T16:50:21.932Z,96671.41
2024-03-30T16:52:49.553Z,96670.27
2024-03-30T16:55:17.306Z,96670.63
2024-03-30T16:57:45.661Z,96670.83
2024-03-30T17:00:13.900Z,96665.55
2024-03-30T17:02:45.928Z,96665.85
2024-03-30T17:05:14.825Z,96665.29
2024-03-30T17:07:42.422Z,96664.36
2024-03-30T17:10:10.045Z,96665.28
2024-03-30T17:12:38.103Z,96670.54
2024-03-30T17:15:06.939Z,96678.12
2024-03-30T17:17:34.529Z,96681.40
2024-03-30T17:20:02.332Z,96683.77
2024-03-30T17:22:30.260Z,96688.22
2024-03-30T17:24:57.993Z,96688.21
2024-03-30T17:27:26.078Z,96689.52
2024-03-30T17:29:53.906Z,96689.45
2024-03-30T17:32:21.590Z,96694.55
2024-03-30T17:35:01.251Z,96695.17
2024-03-30T17:37:29.412Z,96694.19
2024-03-30T17:39:57.143Z,96700.05
2024-03-30T17:42:24.874Z,96704.50
2024-03-30T17:44:52.774Z,96702.99
2024-03-30T17:47:20.592Z,96707.95
2024-03-30T17:49:48.240Z,96708.08
2024-03-30T17:52:15.994Z,96707.52
2024-03-30T17:54:46.533Z,96710.34
2024-03-30T17:57:14.131Z,96719.42
2024-03-30T17:59:41.902Z,96721.27
2024-03-30T21:37:25.422Z,96747.55
2024-03-30T21:39:53.525Z,96753.83
2024-03-30T21:42:21.152Z,96753.80
2024-03-30T21:44:48.842Z,96754.00
2024-03-30T21:47:16.509Z,96753.34
2024-03-30T21:49:44.055Z,96751.12
2024-03-30T21:52:11.116Z,96751.26
2024-03-30T21:54:38.233Z,96755.10
2024-03-30T21:57:05.227Z,96756.67
2024-03-30T21:59:31.992Z,96756.78
2024-03-30T22:01:58.778Z,96755.30
2024-03-30T22:04:25.438Z,96754.95
2024-03-30T22:06:52.069Z,96752.08
2024-03-30T22:09:18.674Z,96752.78
2024-03-30T22:11:45.220Z,96755.02
2024-03-30T22:14:11.663Z,96755.17
2024-03-30T22:16:39.400Z,96757.44
2024-03-30T22:19:06.463Z,96760.81
2024-03-30T22:21:33.532Z,96761.23
2024-03-30T22:24:00.489Z,96754.95
2024-03-30T22:26:28.091Z,96756.28
2024-03-30T22:29:01.083Z,96754.84
2024-03-30T22:31:27.792Z,96748.77
2024-03-30T22:33:55.686Z,96747.44
2024-03-30T22:36:23.365Z,96746.23
2024-03-30T22:38:50.818Z,96746.88
2024-03-30T22:41:18.098Z,96745.78
2024-03-30T22:43:45.071Z,96743.83
2024-03-30T22:46:12.848Z,96744.27
2024-03-30T22:48:40.110Z,96743.35
2024-03-30T22:51:07.476Z,96739.41
2024-03-30T22:53:35.544Z,96734.95
2024-03-30T22:56:02.525Z,96734.77
2024-03-30T22:58:29.727Z,96733.81
2024-03-30T23:00:58.234Z,96732.05
2024-03-30T23:03:26.598Z,96729.25
2024-03-30T23:05:59.442Z,96730.52
2024-03-30T23:08:28.082Z,96730.86
2024-03-30T23:11:05.559Z,96725.40
2024-03-30T23:13:33.427Z,96725.42
2024-03-30T23:16:01.009Z,96724.11
2024-03-30T23:18:29.384Z,96719.91
2024-03-30T23:20:56.353Z,96719.19
2024-03-30T23:23:24.283Z,96714.92
2024-03-30T23:25:52.474Z,96714.01
2024-03-30T23:28:20.976Z,96713.04
2024-03-30T23:30:47.558Z,96710.10
2024-03-30T23:33:14.317Z,96704.38
2024-03-30T23:35:42.388Z,96706.75
2024-03-30T23:38:09.634Z,96706.14
2024-03-30T23:40:37.217Z,96701.84
2024-03-30T23:43:04.779Z,96705.42
2024-03-30T23:45:36.392Z,96705.89
2024-03-30T23:48:03.498Z,96707.10
2024-03-30T23:50:30.230Z,96703.80
2024-03-30T23:52:56.664Z,96704.64
2024-03-30T23:55:23.800Z,96706.79
2024-03-30T23:57:51.758Z,96699.21
